Time;durP1;ratioP1;P1;durP2;ratioP2;P2;SDS_P1;SDS_P2;PMS_P1;PMS_P2;Temp;Humidity;BMP_temperature;BMP_pressure;BME280_temperature;BME280_humidity;BME280_pressure;Samples;Min_cycle;Max_cycle;Signal;HPM_P1;HPM_P2
2022/01/03 00:01:45;;;;;;;35.43;23.57;;;;;;;7.98;87.18;99986.44;4975336;28;20187;-67
2022/01/03 00:04:13;;;;;;;35.50;23.17;;;;;;;7.96;86.47;99989.25;4974707;28;20250;-67
2022/01/03 00:06:40;;;;;;;33.50;22.13;;;;;;;7.93;86.69;99988.78;4975117;28;20238;-67
2022/01/03 00:09:07;;;;;;;30.57;21.47;;;;;;;7.90;86.84;99981.16;4975200;28;20319;-66
2022/01/03 00:11:35;;;;;;;33.40;23.20;;;;;;;7.82;87.69;99986.47;4974520;28;20199;-66
2022/01/03 00:14:03;;;;;;;32.83;21.90;;;;;;;7.83;87.08;99980.19;4974543;28;20199;-66
2022/01/03 00:16:31;;;;;;;31.30;20.40;;;;;;;7.75;87.28;99970.44;4974581;28;20277;-67
2022/01/03 00:18:58;;;;;;;30.23;21.43;;;;;;;7.76;87.12;99966.00;4974737;28;20273;-67
2022/01/03 00:21:29;;;;;;;24.20;20.50;;;;;;;7.76;86.94;99950.94;4975212;28;20258;-67
2022/01/03 00:24:06;;;;;;;35.30;22.00;;;;;;;7.71;86.74;99937.41;4975406;28;20526;-67
2022/01/03 00:26:35;;;;;;;33.00;24.10;;;;;;;7.71;87.12;99931.28;4974818;28;20190;-67
2022/01/03 00:29:08;;;;;;;31.33;22.77;;;;;;;7.69;86.53;99920.06;4974605;28;20304;-67
2022/01/03 00:31:38;;;;;;;29.03;22.00;;;;;;;7.63;87.26;99923.38;4974017;28;20663;-67
2022/01/03 00:34:06;;;;;;;27.07;19.30;;;;;;;7.55;88.34;99918.09;4975371;28;20193;-67
2022/01/03 00:36:34;;;;;;;29.67;20.30;;;;;;;7.46;88.04;99919.06;4974363;28;20278;-67
2022/01/03 00:39:01;;;;;;;23.83;18.77;;;;;;;7.38;89.29;99898.75;4974086;28;20211;-67
2022/01/03 00:41:28;;;;;;;24.77;19.63;;;;;;;7.35;88.14;99911.50;4974053;28;20670;-67
2022/01/03 00:43:56;;;;;;;27.50;19.17;;;;;;;7.16;88.38;99909.16;4974342;28;20198;-67
2022/01/03 00:46:24;;;;;;;26.90;19.40;;;;;;;7.13;90.64;99906.84;4974265;28;20253;-67
2022/01/03 00:48:54;;;;;;;24.63;18.90;;;;;;;7.11;88.82;99900.91;4973906;28;20690;-67
2022/01/03 00:51:21;;;;;;;28.53;19.77;;;;;;;7.23;89.89;99910.16;4974335;28;20226;-67
2022/01/03 00:53:48;;;;;;;34.23;22.37;;;;;;;7.32;91.53;99903.88;4973762;28;20207;-67
2022/01/03 00:56:23;;;;;;;59.53;25.10;;;;;;;7.39;91.91;99894.31;4973750;28;20226;-67
2022/01/03 00:58:55;;;;;;;40.53;23.83;;;;;;;7.48;91.83;99894.13;4974840;28;20199;-67
2022/01/03 01:01:24;;;;;;;45.83;22.50;;;;;;;7.52;92.46;99895.44;4973785;28;20191;-67
2022/01/03 01:03:54;;;;;;;46.60;22.80;;;;;;;7.54;92.46;99890.00;4974275;28;20191;-67
2022/01/03 01:06:22;;;;;;;48.23;23.87;;;;;;;7.63;91.90;99902.22;4973678;28;20560;-67
2022/01/03 01:08:55;;;;;;;41.07;23.03;;;;;;;7.66;91.76;99896.59;4973528;28;20195;-67
2022/01/03 01:11:27;;;;;;;51.47;24.03;;;;;;;7.67;92.00;99898.25;4974223;28;20194;-66
2022/01/03 01:13:54;;;;;;;78.23;25.67;;;;;;;7.68;93.59;99902.53;4973575;28;20194;-66
2022/01/03 01:16:21;;;;;;;49.67;25.87;;;;;;;7.71;94.43;99899.53;4973749;28;20314;-66
2022/01/03 01:18:49;;;;;;;54.93;24.57;;;;;;;7.71;94.31;99886.31;4973429;28;20202;-66
2022/01/03 01:21:18;;;;;;;55.70;25.60;;;;;;;7.72;94.92;99893.28;4973672;28;20192;-66
2022/01/03 01:23:45;;;;;;;82.53;25.10;;;;;;;7.73;95.59;99881.72;4973347;28;20195;-66
2022/01/03 01:28:57;;;;;;;55.67;25.30;;;;;;;7.67;96.69;99879.75;4973760;28;20187;-65
2022/01/03 01:31:25;;;;;;;44.03;24.63;;;;;;;7.64;97.23;99861.56;4973224;28;20195;-65
2022/01/03 01:33:54;;;;;;;100.27;26.90;;;;;;;7.64;97.48;99862.38;4973577;28;20277;-65
2022/01/03 01:36:26;;;;;;;144.53;26.57;;;;;;;7.62;97.54;99866.19;4973158;28;20218;-66
2022/01/03 01:38:55;;;;;;;65.43;24.57;;;;;;;7.60;98.45;99852.31;4973304;28;20187;-66
2022/01/03 01:41:25;;;;;;;40.17;23.23;;;;;;;7.67;99.76;99850.66;4973153;28;20590;-66
2022/01/03 01:43:53;;;;;;;43.47;22.20;;;;;;;7.73;99.77;99839.41;4972900;28;20191;-66
2022/01/03 01:46:24;;;;;;;43.90;21.97;;;;;;;7.78;99.35;99835.25;4973137;28;20198;-66
2022/01/03 01:48:52;;;;;;;41.20;20.80;;;;;;;7.85;98.89;99832.75;4973160;28;20192;-66
2022/01/03 01:51:21;;;;;;;56.30;21.13;;;;;;;7.78;97.25;99837.06;4973353;28;20235;-66
2022/01/03 01:53:51;;;;;;;113.20;21.43;;;;;;;7.79;97.67;99839.56;4973351;28;20203;-66
2022/01/03 01:56:20;;;;;;;45.87;19.63;;;;;;;7.70;96.40;99839.72;4973426;28;20246;-66
2022/01/03 01:59:11;;;;;;;63.43;21.13;;;;;;;7.72;97.27;99824.53;4973598;28;20262;-66
2022/01/03 02:01:47;;;;;;;50.60;20.73;;;;;;;7.69;96.78;99814.31;4973654;28;20191;-66
2022/01/03 02:04:26;;;;;;;141.27;22.47;;;;;;;7.67;97.40;99805.72;4973042;28;20187;-66
2022/01/03 02:06:56;;;;;;;41.77;21.60;;;;;;;7.62;98.10;99797.47;4973022;28;20667;-66
2022/01/03 02:09:34;;;;;;;84.40;22.37;;;;;;;7.67;97.52;99808.38;4972955;28;20675;-66
2022/01/03 02:12:03;;;;;;;58.33;21.00;;;;;;;7.68;98.17;99802.09;4973001;28;20183;-66
2022/01/03 02:14:36;;;;;;;66.13;21.90;;;;;;;7.71;98.58;99801.72;4972888;28;20754;-67
2022/01/03 02:17:04;;;;;;;117.20;24.13;;;;;;;7.72;98.72;99792.81;4972871;28;20246;-66
2022/01/03 02:19:31;;;;;;;44.97;28.20;;;;;;;7.74;98.06;99789.00;4973190;28;20199;-66
2022/01/03 02:21:59;;;;;;;129.60;22.93;;;;;;;7.75;98.46;99780.06;4973162;28;20191;-66
2022/01/03 02:24:25;;;;;;;52.23;21.10;;;;;;;7.74;97.32;99777.59;4973036;28;20261;-67
2022/01/03 02:26:53;;;;;;;40.93;21.27;;;;;;;7.67;98.15;99782.75;4972737;28;20209;-67
2022/01/03 02:29:20;;;;;;;44.77;22.43;;;;;;;7.60;99.91;99780.97;4972756;28;20196;-66
2022/01/03 02:31:46;;;;;;;89.97;21.57;;;;;;;7.64;99.47;99779.63;4973375;28;20269;-67
2022/01/03 02:34:13;;;;;;;131.10;22.57;;;;;;;7.67;99.28;99774.00;4972964;28;20191;-66
2022/01/03 02:36:44;;;;;;;92.33;21.70;;;;;;;7.62;99.03;99765.75;4972898;28;20264;-67
2022/01/03 02:39:14;;;;;;;46.10;21.73;;;;;;;7.63;99.35;99746.25;4973785;28;20194;-67
2022/01/03 02:41:41;;;;;;;103.60;23.33;;;;;;;7.68;98.72;99757.13;4973241;28;20199;-67
2022/01/03 02:44:07;;;;;;;56.90;20.40;;;;;;;7.62;98.29;99763.09;4972902;28;20254;-66
2022/01/03 02:46:34;;;;;;;69.00;21.33;;;;;;;7.58;98.38;99780.28;4972916;28;20199;-66
2022/01/03 02:49:03;;;;;;;33.07;19.97;;;;;;;7.62;98.90;99771.03;4972824;28;20226;-66
2022/01/03 02:51:30;;;;;;;36.80;19.47;;;;;;;7.54;99.87;99776.34;4972582;28;20701;-66
2022/01/03 02:53:56;;;;;;;30.53;20.43;;;;;;;7.56;100.00;99784.94;4973689;28;20256;-67
2022/01/03 02:56:24;;;;;;;36.80;20.87;;;;;;;7.56;100.00;99787.56;4976232;28;20223;-66
2022/01/03 02:58:51;;;;;;;41.30;22.20;;;;;;;7.48;99.39;99790.25;4976497;28;20260;-66
2022/01/03 03:01:18;;;;;;;45.60;21.97;;;;;;;7.45;99.66;99782.63;4976223;28;20201;-66
2022/01/03 03:03:47;;;;;;;55.97;22.80;;;;;;;7.32;98.98;99783.19;4975908;28;20262;-66
2022/01/03 03:06:14;;;;;;;44.87;20.97;;;;;;;7.20;98.58;99783.69;4975840;28;20241;-66
2022/01/03 03:08:40;;;;;;;45.30;22.57;;;;;;;7.03;99.08;99787.34;4975763;28;20199;-66
2022/01/03 03:11:07;;;;;;;51.77;23.10;;;;;;;6.82;98.77;99789.66;4976024;28;20562;-66
2022/01/03 03:13:35;;;;;;;53.53;20.07;;;;;;;6.67;98.59;99788.66;4976046;28;20615;-66
2022/01/03 03:16:02;;;;;;;62.93;21.97;;;;;;;6.56;98.44;99795.06;4975629;28;20331;-66
2022/01/03 03:18:29;;;;;;;48.20;20.20;;;;;;;6.34;98.74;99800.16;4975638;28;20265;-66
2022/01/03 03:20:57;;;;;;;49.20;20.07;;;;;;;6.18;100.00;99803.59;4975582;28;20738;-67
2022/01/03 03:23:24;;;;;;;31.97;19.50;;;;;;;6.18;100.00;99795.66;4976664;28;20205;-66
2022/01/03 03:25:50;;;;;;;25.80;17.53;;;;;;;6.18;100.00;99790.41;4975452;28;20291;-66
2022/01/03 03:28:17;;;;;;;47.07;18.50;;;;;;;6.24;99.99;99792.38;4975755;28;20199;-66
2022/01/03 03:30:47;;;;;;;33.53;17.80;;;;;;;6.25;98.82;99772.91;4975386;28;20758;-67
2022/01/03 03:33:16;;;;;;;25.37;18.00;;;;;;;6.30;97.84;99767.16;4976753;28;20199;-66
2022/01/03 03:35:43;;;;;;;47.87;18.63;;;;;;;6.19;96.81;99772.75;4976158;28;20191;-66
2022/01/03 03:38:11;;;;;;;24.23;17.80;;;;;;;6.09;97.49;99777.34;4975551;28;20287;-66
2022/01/03 03:40:38;;;;;;;31.97;22.70;;;;;;;6.12;98.57;99769.13;4975207;28;20196;-66
2022/01/03 03:43:05;;;;;;;43.17;24.23;;;;;;;6.13;98.86;99761.06;4975885;28;20596;-66
2022/01/03 03:45:32;;;;;;;57.47;22.43;;;;;;;6.12;97.50;99763.84;4975155;28;20257;-66
2022/01/03 03:48:00;;;;;;;27.13;18.40;;;;;;;6.11;96.69;99752.47;4976190;28;20230;-66
2022/01/03 03:50:27;;;;;;;95.60;21.03;;;;;;;6.03;96.22;99744.53;4975607;28;20206;-67
2022/01/03 03:52:55;;;;;;;32.70;20.37;;;;;;;6.10;98.05;99739.44;4975800;28;20283;-66
2022/01/03 03:55:22;;;;;;;67.03;22.10;;;;;;;6.01;98.09;99717.50;4975228;28;20200;-65
2022/01/03 03:57:49;;;;;;;38.53;19.63;;;;;;;6.14;97.79;99725.78;4975166;28;20282;-65
2022/01/03 04:00:19;;;;;;;40.07;20.70;;;;;;;6.20;98.93;99729.56;4975181;28;20196;-66
2022/01/03 04:02:46;;;;;;;56.37;20.20;;;;;;;6.17;97.28;99730.72;4974853;28;20637;-65
2022/01/03 04:05:15;;;;;;;36.17;20.87;;;;;;;6.15;98.43;99721.31;4974867;28;20262;-65
2022/01/03 04:07:42;;;;;;;62.03;22.03;;;;;;;6.20;99.08;99725.09;4974799;28;20285;-65
2022/01/03 04:10:11;;;;;;;35.17;19.47;;;;;;;6.24;98.94;99709.81;4975759;28;20253;-65
2022/01/03 04:12:39;;;;;;;35.27;20.57;;;;;;;6.32;100.00;99702.72;4975197;28;20197;-66
2022/01/03 04:15:06;;;;;;;34.63;20.40;;;;;;;6.42;100.00;99697.28;4975392;28;20197;-66
2022/01/03 04:17:33;;;;;;;41.60;19.37;;;;;;;6.47;99.54;99694.97;4974395;28;20332;-66
2022/01/03 04:20:00;;;;;;;42.20;21.30;;;;;;;6.45;99.24;99710.94;4974453;28;20664;-66
2022/01/03 04:22:28;;;;;;;29.20;20.40;;;;;;;6.58;100.00;99707.84;4974731;28;20194;-66
2022/01/03 04:24:55;;;;;;;32.83;19.77;;;;;;;6.56;99.93;99709.78;4974944;28;20264;-66
2022/01/03 04:27:23;;;;;;;34.13;21.03;;;;;;;6.62;99.62;99703.88;4975148;28;20195;-67
2022/01/03 04:29:49;;;;;;;34.40;22.03;;;;;;;6.68;100.00;99708.47;4975127;28;20258;-66
2022/01/03 04:32:16;;;;;;;39.73;20.80;;;;;;;6.63;99.30;99710.78;4974496;28;20196;-66
2022/01/03 04:34:43;;;;;;;35.43;20.63;;;;;;;6.53;100.00;99697.75;4975271;28;20278;-66
2022/01/03 04:37:10;;;;;;;64.73;30.77;;;;;;;6.54;99.62;99712.63;4975205;28;20223;-66
2022/01/03 04:39:38;;;;;;;42.80;24.97;;;;;;;6.58;100.00;99710.47;4974457;28;20198;-66
2022/01/03 04:42:05;;;;;;;40.63;24.50;;;;;;;6.58;100.00;99718.38;4973936;28;20254;-66
2022/01/03 04:44:32;;;;;;;68.50;26.80;;;;;;;6.57;100.00;99711.47;4974004;28;20199;-67
2022/01/03 04:46:59;;;;;;;30.00;21.70;;;;;;;6.45;100.00;99718.06;4974175;28;20259;-66
2022/01/03 04:49:26;;;;;;;36.67;19.00;;;;;;;6.40;99.72;99720.38;4973913;28;20200;-66
2022/01/03 04:51:52;;;;;;;47.50;18.10;;;;;;;6.30;97.57;99714.41;4974081;28;20298;-66
2022/01/03 04:54:19;;;;;;;48.03;18.13;;;;;;;6.28;96.62;99724.31;4974128;28;20198;-66
2022/01/03 04:56:48;;;;;;;47.93;17.77;;;;;;;6.25;95.78;99732.53;4973763;28;20195;-66
2022/01/03 04:59:15;;;;;;;32.07;16.80;;;;;;;6.18;96.20;99728.91;4973740;28;20258;-67
2022/01/03 05:01:41;;;;;;;43.07;18.63;;;;;;;6.18;96.54;99726.25;4974246;28;20619;-67
2022/01/03 05:04:08;;;;;;;27.17;17.23;;;;;;;6.16;96.48;99721.16;4973956;28;20635;-66
2022/01/03 05:06:35;;;;;;;43.67;17.53;;;;;;;6.07;94.86;99729.19;4973992;28;20192;-67
2022/01/03 05:09:02;;;;;;;35.93;18.47;;;;;;;5.79;94.69;99726.81;4974180;28;20195;-67
2022/01/03 05:11:28;;;;;;;36.47;18.33;;;;;;;5.66;95.95;99704.53;4973646;28;20196;-67
2022/01/03 05:13:56;;;;;;;30.50;17.00;;;;;;;5.70;97.03;99701.41;4973834;28;20588;-67
2022/01/03 05:16:23;;;;;;;45.67;19.23;;;;;;;5.73;96.98;99711.63;4973756;28;20197;-68
2022/01/03 05:18:50;;;;;;;37.00;19.23;;;;;;;5.69;95.50;99720.03;4972562;28;20669;-67
2022/01/03 05:21:16;;;;;;;39.97;20.23;;;;;;;5.63;96.68;99723.28;4973987;28;20249;-67
2022/01/03 05:23:43;;;;;;;41.80;20.50;;;;;;;5.42;97.63;99734.22;4973960;28;20196;-67
2022/01/03 05:26:10;;;;;;;32.30;20.50;;;;;;;5.35;99.68;99727.94;4973354;28;20258;-67
2022/01/03 05:28:37;;;;;;;38.43;21.00;;;;;;;5.32;100.00;99727.44;4974026;28;20616;-67
2022/01/03 05:31:06;;;;;;;49.97;21.10;;;;;;;5.24;100.00;99715.03;4974261;28;20610;-67
2022/01/03 05:33:32;;;;;;;45.57;19.73;;;;;;;5.25;100.00;99711.44;4973790;28;20273;-67
2022/01/03 05:35:59;;;;;;;79.90;21.87;;;;;;;5.19;100.00;99717.31;4973540;28;20191;-67
2022/01/03 05:38:26;;;;;;;67.27;20.97;;;;;;;4.96;100.00;99708.31;4973025;28;20785;-67
2022/01/03 05:40:52;;;;;;;78.50;22.90;;;;;;;5.02;100.00;99707.69;4973239;28;20249;-67
2022/01/03 05:43:19;;;;;;;89.70;23.30;;;;;;;5.01;100.00;99698.13;4973051;28;20259;-67
2022/01/03 05:45:47;;;;;;;156.13;26.07;;;;;;;5.00;100.00;99696.50;4973029;28;20195;-67
2022/01/03 05:48:15;;;;;;;116.90;25.83;;;;;;;5.00;100.00;99701.75;4973142;28;20196;-66
2022/01/03 05:50:41;;;;;;;183.30;28.23;;;;;;;4.96;100.00;99710.94;4973007;28;20222;-67
2022/01/03 05:53:08;;;;;;;112.23;25.53;;;;;;;4.88;100.00;99724.06;4974172;28;20263;-66
2022/01/03 05:55:35;;;;;;;221.97;28.90;;;;;;;4.93;100.00;99720.94;4974026;28;20196;-67
2022/01/03 05:58:01;;;;;;;172.30;26.70;;;;;;;5.02;100.00;99720.84;4972849;28;20611;-67
2022/01/03 06:00:29;;;;;;;167.47;23.13;;;;;;;5.00;100.00;99709.66;4973259;28;20582;-67
2022/01/03 06:02:57;;;;;;;228.87;25.07;;;;;;;4.89;100.00;99709.06;4972923;28;20199;-67
2022/01/03 06:08:08;;;;;;;217.83;26.97;;;;;;;4.78;100.00;99710.16;4970700;28;20632;-66
2022/01/03 06:10:40;;;;;;;265.07;26.43;;;;;;;4.74;100.00;99715.91;4972808;28;20254;-67
2022/01/03 06:13:06;;;;;;;152.97;24.13;;;;;;;4.58;100.00;99685.00;4972912;28;20187;-67
2022/01/03 06:15:33;;;;;;;193.37;26.00;;;;;;;4.75;100.00;99707.81;4973119;28;20199;-67
2022/01/03 06:18:00;;;;;;;86.33;26.37;;;;;;;4.72;100.00;99696.78;4972888;28;20219;-67
2022/01/03 06:20:28;;;;;;;113.63;27.47;;;;;;;4.89;100.00;99694.13;4972714;28;20200;-67
2022/01/03 06:22:55;;;;;;;57.53;24.77;;;;;;;5.11;100.00;99706.75;4973045;28;20199;-67
2022/01/03 06:25:21;;;;;;;72.07;26.57;;;;;;;5.27;100.00;99693.66;4972964;28;20199;-66
2022/01/03 06:27:48;;;;;;;70.23;26.13;;;;;;;5.42;100.00;99696.53;4972689;28;20227;-67
2022/01/03 06:30:15;;;;;;;62.67;26.40;;;;;;;5.52;100.00;99684.88;4975576;28;20195;-67
2022/01/03 06:32:42;;;;;;;52.87;25.37;;;;;;;5.72;100.00;99688.09;4980269;28;20198;-67
2022/01/03 06:35:09;;;;;;;81.93;23.67;;;;;;;5.84;100.00;99686.00;4989102;28;20559;-67
2022/01/03 06:37:37;;;;;;;53.47;20.93;;;;;;;5.93;100.00;99685.84;4980295;28;20215;-67
2022/01/03 06:40:06;;;;;;;51.03;19.33;;;;;;;6.00;100.00;99686.03;4977501;28;20195;-66
2022/01/03 06:42:32;;;;;;;108.23;19.67;;;;;;;5.94;100.00;99689.31;4995835;28;20256;-67
2022/01/03 06:44:59;;;;;;;148.33;20.53;;;;;;;5.86;100.00;99684.00;4995902;28;20321;-66
2022/01/03 06:47:26;;;;;;;48.50;24.40;;;;;;;5.83;100.00;99676.44;4995704;28;20257;-66
2022/01/03 06:49:53;;;;;;;101.60;26.20;;;;;;;5.84;100.00;99675.44;4984010;28;20200;-65
2022/01/03 06:52:20;;;;;;;60.60;21.87;;;;;;;5.89;100.00;99678.44;4975746;28;20641;-65
2022/01/03 06:54:48;;;;;;;54.47;20.57;;;;;;;6.19;100.00;99665.44;4975876;28;20718;-65
2022/01/03 06:57:15;;;;;;;44.63;20.93;;;;;;;6.16;100.00;99670.25;4976053;28;20282;-64
2022/01/03 06:59:42;;;;;;;54.10;22.30;;;;;;;6.16;100.00;99676.31;4976117;28;20667;-65
2022/01/03 07:02:09;;;;;;;113.23;22.40;;;;;;;6.19;100.00;99680.44;4976015;28;20196;-66
2022/01/03 07:04:35;;;;;;;101.07;22.70;;;;;;;6.14;100.00;99688.03;4976076;28;20195;-66
2022/01/03 07:07:02;;;;;;;46.80;20.37;;;;;;;6.09;100.00;99682.41;4988034;28;20258;-66
2022/01/03 07:09:29;;;;;;;54.80;21.90;;;;;;;6.11;100.00;99701.53;4995093;28;20199;-66
2022/01/03 07:11:57;;;;;;;68.47;21.53;;;;;;;6.04;100.00;99697.91;4995149;28;20633;-66
2022/01/03 07:19:53;;;;;;;32.93;14.70;;;;;;;6.30;100.00;99677.47;4995641;28;20206;-66
2022/01/03 07:22:20;;;;;;;23.30;12.80;;;;;;;6.29;100.00;99683.75;4994832;28;20249;-67
2022/01/03 07:24:47;;;;;;;19.00;12.70;;;;;;;6.34;100.00;99694.63;4995425;28;20194;-67
2022/01/03 07:27:16;;;;;;;30.87;14.50;;;;;;;6.26;100.00;99686.72;4995782;28;20194;-68
2022/01/03 07:29:43;;;;;;;20.63;12.37;;;;;;;6.14;100.00;99706.47;4994533;28;20586;-67
2022/01/03 07:32:10;;;;;;;30.17;18.13;;;;;;;6.08;99.80;99710.59;4995566;28;20198;-67
2022/01/03 07:34:38;;;;;;;44.87;13.97;;;;;;;6.09;98.91;99717.53;4994596;28;20198;-67
2022/01/03 07:37:05;;;;;;;25.50;15.17;;;;;;;6.07;100.00;99708.09;4994840;28;20273;-66
2022/01/03 07:39:34;;;;;;;28.17;16.47;;;;;;;6.13;100.00;99707.47;4994645;28;20230;-67
2022/01/03 07:42:01;;;;;;;21.20;14.77;;;;;;;6.14;99.74;99703.84;4974565;28;20654;-67
2022/01/03 07:44:29;;;;;;;18.10;13.30;;;;;;;6.30;100.00;99688.88;4975339;28;20257;-65
2022/01/03 07:46:56;;;;;;;28.30;15.87;;;;;;;6.30;100.00;99699.44;4975387;28;20195;-66
2022/01/03 07:49:22;;;;;;;23.80;14.77;;;;;;;6.66;100.00;99690.16;4975119;28;20239;-66
2022/01/03 07:51:49;;;;;;;24.47;16.40;;;;;;;6.81;100.00;99700.91;4974703;28;20709;-65
2022/01/03 07:54:16;;;;;;;25.80;16.73;;;;;;;6.90;96.86;99702.53;4980025;28;20248;-65
2022/01/03 07:56:43;;;;;;;26.50;17.13;;;;;;;6.99;95.23;99699.72;4977316;28;20264;-67
2022/01/03 07:59:09;;;;;;;30.27;19.87;;;;;;;7.02;95.28;99696.72;4974597;28;20703;-66
2022/01/03 08:01:40;;;;;;;29.27;17.97;;;;;;;6.99;96.58;99690.97;4975866;28;20578;-68
2022/01/03 08:04:07;;;;;;;32.77;20.40;;;;;;;7.06;96.76;99670.81;4974803;28;20201;-69
2022/01/03 08:06:34;;;;;;;38.10;19.37;;;;;;;7.02;94.54;99666.88;4974630;28;20225;-68
2022/01/03 08:09:01;;;;;;;25.27;17.40;;;;;;;7.08;95.08;99682.00;4974431;28;20671;-68
2022/01/03 08:11:27;;;;;;;31.63;18.50;;;;;;;7.08;93.44;99690.78;4974886;28;20195;-68
2022/01/03 08:13:54;;;;;;;35.17;17.40;;;;;;;7.03;92.58;99698.38;4974896;28;20199;-68
2022/01/03 08:16:21;;;;;;;33.57;18.97;;;;;;;7.00;92.81;99697.88;4974693;28;20262;-68
2022/01/03 08:18:49;;;;;;;27.33;17.27;;;;;;;7.04;94.06;99680.72;4974168;28;20223;-70
2022/01/03 08:21:16;;;;;;;27.43;17.97;;;;;;;7.08;93.10;99671.44;4974929;28;20199;-68
2022/01/03 08:23:42;;;;;;;34.13;18.63;;;;;;;7.00;93.50;99666.19;4974092;28;20237;-68
2022/01/03 08:26:09;;;;;;;32.80;20.00;;;;;;;6.96;93.39;99654.31;4974368;28;20326;-69
2022/01/03 08:28:36;;;;;;;33.63;19.27;;;;;;;7.01;94.98;99658.09;4974230;28;20203;-69
2022/01/03 08:31:03;;;;;;;34.10;20.17;;;;;;;7.05;92.76;99648.00;4974312;28;20195;-69
2022/01/03 08:33:30;;;;;;;31.60;17.83;;;;;;;6.95;92.28;99642.13;4973766;28;20656;-68
2022/01/03 08:35:58;;;;;;;28.97;18.37;;;;;;;6.81;93.67;99645.47;4974464;28;20641;-68
2022/01/03 08:38:25;;;;;;;25.20;17.90;;;;;;;6.80;94.49;99644.63;4973699;28;20226;-69
2022/01/03 08:40:52;;;;;;;31.47;20.13;;;;;;;6.80;94.28;99643.78;4983600;28;20279;-67
2022/01/03 08:43:19;;;;;;;32.83;20.60;;;;;;;6.92;94.78;99642.44;4993901;28;20197;-66
2022/01/03 08:45:46;;;;;;;34.83;22.37;;;;;;;7.06;94.04;99639.13;4993057;28;20201;-68
2022/01/03 08:48:12;;;;;;;41.13;26.00;;;;;;;7.10;92.39;99640.44;4980488;28;20205;-69
2022/01/03 08:50:39;;;;;;;46.20;27.37;;;;;;;7.01;93.05;99641.41;4973524;28;20741;-69
2022/01/03 08:53:09;;;;;;;41.37;25.13;;;;;;;7.09;93.54;99623.75;4975669;28;20232;-71
2022/01/03 08:55:35;;;;;;;46.57;25.73;;;;;;;7.32;94.69;99606.16;4984981;28;20234;-68
2022/01/03 08:58:02;;;;;;;46.40;25.10;;;;;;;7.50;90.49;99621.75;4978519;28;20231;-69
2022/01/03 09:00:29;;;;;;;42.43;25.03;;;;;;;7.59;91.44;99629.44;4973234;28;20195;-68
2022/01/03 09:02:55;;;;;;;38.50;23.53;;;;;;;7.68;90.01;99609.91;4992007;28;20662;-67
2022/01/03 09:05:23;;;;;;;34.93;21.80;;;;;;;8.02;89.49;99617.44;4992987;28;20245;-67
2022/01/03 09:07:49;;;;;;;33.33;21.80;;;;;;;8.15;89.76;99618.50;4992580;28;20658;-69
2022/01/03 09:10:17;;;;;;;34.13;21.23;;;;;;;8.26;89.44;99614.66;4983644;28;20269;-70
2022/01/03 09:12:44;;;;;;;36.73;23.70;;;;;;;8.66;97.05;99606.34;4969932;28;20191;-67
2022/01/03 09:15:11;;;;;;;38.60;22.70;;;;;;;8.85;88.80;99600.50;4992696;28;20195;-66
2022/01/03 09:17:38;;;;;;;36.60;24.17;;;;;;;8.96;87.04;99605.34;4974322;28;20250;-66
2022/01/03 09:20:06;;;;;;;42.77;27.63;;;;;;;9.03;86.00;99601.75;4972711;28;20231;-66
2022/01/03 09:22:38;;;;;;;35.40;23.07;;;;;;;9.28;86.36;99603.13;4971622;28;20253;-66
2022/01/03 09:30:36;;;;;;;38.83;24.70;;;;;;;9.79;83.15;99595.94;4989197;28;20285;-67
2022/01/03 09:33:03;;;;;;;36.93;24.10;;;;;;;10.16;81.88;99593.06;4987947;28;20194;-68
2022/01/03 09:35:29;;;;;;;31.43;21.47;;;;;;;10.42;78.80;99598.63;4989499;28;20186;-68
2022/01/03 09:37:56;;;;;;;28.33;19.80;;;;;;;10.49;77.92;99594.16;4988865;28;20194;-66
2022/01/03 09:40:23;;;;;;;31.20;21.73;;;;;;;10.69;76.61;99595.13;4984687;28;20203;-66
2022/01/03 09:42:56;;;;;;;32.70;21.37;;;;;;;10.78;77.54;99578.84;4970411;28;20195;-66
2022/01/03 09:45:26;;;;;;;30.47;22.17;;;;;;;11.17;76.34;99567.63;4971994;28;20203;-63
2022/01/03 09:47:55;;;;;;;34.30;21.67;;;;;;;11.57;75.13;99548.13;4972609;28;20205;-64
2022/01/03 09:50:22;;;;;;;29.50;20.77;;;;;;;12.02;73.69;99552.75;4971847;28;20227;-66
2022/01/03 09:52:50;;;;;;;27.47;20.37;;;;;;;12.39;71.58;99549.47;4972251;28;20579;-66
2022/01/03 09:55:18;;;;;;;34.43;24.10;;;;;;;12.55;70.42;99549.03;4971722;28;20200;-65
2022/01/03 09:57:46;;;;;;;31.83;23.00;;;;;;;12.85;68.78;99544.03;4971915;28;20191;-66
2022/01/03 10:00:15;;;;;;;39.90;24.40;;;;;;;13.12;67.27;99543.81;4969247;28;20234;-67
2022/01/03 10:02:45;;;;;;;38.47;24.57;;;;;;;13.37;66.29;99522.53;4969580;28;20200;-66
2022/01/03 10:05:12;;;;;;;36.70;26.03;;;;;;;13.59;64.69;99511.34;4973779;28;20835;-67
2022/01/03 10:07:40;;;;;;;38.97;26.73;;;;;;;13.82;65.31;99511.59;4973070;28;20226;-67
2022/01/03 10:10:08;;;;;;;39.07;26.63;;;;;;;13.95;64.08;99506.16;4975564;28;20222;-69
2022/01/03 10:12:35;;;;;;;42.27;27.03;;;;;;;14.09;64.09;99494.31;4974510;28;20187;-70
2022/01/03 10:15:04;;;;;;;41.73;27.33;;;;;;;14.11;62.93;99486.91;4974683;28;20293;-71
2022/01/03 10:17:34;;;;;;;43.27;26.63;;;;;;;14.11;63.46;99483.41;4974672;28;20202;-69
2022/01/03 10:20:01;;;;;;;45.37;29.00;;;;;;;14.00;63.60;99468.94;4974321;28;20695;-67
2022/01/03 10:22:30;;;;;;;39.77;28.60;;;;;;;13.96;64.20;99462.38;4973548;28;20199;-67
2022/01/03 10:24:59;;;;;;;43.97;27.47;;;;;;;13.99;63.96;99453.94;4973473;28;20754;-67
2022/01/03 10:27:45;;;;;;;32.20;23.47;;;;;;;14.40;74.21;99427.47;4973316;28;20191;-66
2022/01/03 10:30:12;;;;;;;39.77;26.67;;;;;;;14.79;63.58;99437.72;4987249;28;20198;-66
2022/01/03 10:32:42;;;;;;;42.13;27.10;;;;;;;15.03;61.90;99442.13;4976431;28;20203;-66
2022/01/03 10:35:17;;;;;;;42.03;26.43;;;;;;;15.26;60.42;99447.59;4971723;28;20285;-65
2022/01/03 10:37:44;;;;;;;41.73;28.03;;;;;;;15.21;59.99;99439.44;4974056;28;20620;-65
2022/01/03 10:40:27;;;;;;;38.87;27.83;;;;;;;15.28;59.48;99434.78;4978560;28;20214;-65
2022/01/03 10:42:55;;;;;;;41.10;27.80;;;;;;;15.27;59.05;99430.50;4989545;28;20210;-65
2022/01/03 10:45:30;;;;;;;36.97;26.07;;;;;;;15.18;59.34;99429.19;4994963;28;20261;-65
2022/01/03 10:47:59;;;;;;;36.77;25.93;;;;;;;15.04;60.66;99427.72;4994294;28;20266;-65
2022/01/03 10:50:26;;;;;;;46.50;26.57;;;;;;;15.18;60.77;99423.84;4995205;28;20214;-65
2022/01/03 10:52:55;;;;;;;102.40;29.70;;;;;;;15.25;61.18;99407.69;4992773;28;20524;-64
2022/01/03 10:55:26;;;;;;;91.23;27.17;;;;;;;15.37;61.56;99409.38;4990451;28;20232;-65
2022/01/03 10:57:55;;;;;;;42.53;24.10;;;;;;;15.51;61.31;99408.13;4993369;28;20219;-65
2022/01/03 11:00:29;;;;;;;35.17;21.67;;;;;;;15.59;59.58;99410.47;4990367;28;20226;-66
2022/01/03 11:03:21;;;;;;;41.97;23.10;;;;;;;15.76;59.85;99394.53;4993030;28;20222;-67
2022/01/03 11:05:52;;;;;;;29.30;20.60;;;;;;;16.02;59.22;99389.53;4991698;28;20725;-65
2022/01/03 11:11:12;;;;;;;44.17;27.67;;;;;;;16.42;56.39;99375.44;4990571;28;20182;-64
2022/01/03 11:13:40;;;;;;;40.93;27.37;;;;;;;16.53;56.07;99366.56;4993776;28;20191;-67
2022/01/03 11:16:42;;;;;;;41.63;26.77;;;;;;;16.87;55.23;99381.75;4990636;28;20205;-65
2022/01/03 11:19:11;;;;;;;42.83;28.03;;;;;;;16.91;54.23;99372.16;4993692;28;20217;-65
2022/01/03 11:21:44;;;;;;;49.30;28.57;;;;;;;16.95;54.57;99367.94;4991562;28;20199;-65
2022/01/03 11:24:13;;;;;;;43.60;27.03;;;;;;;17.09;54.70;99363.91;4990971;28;20242;-67
2022/01/03 11:26:46;;;;;;;46.53;28.70;;;;;;;17.21;54.50;99351.22;4991286;28;20201;-65
2022/01/03 11:29:14;;;;;;;41.13;27.80;;;;;;;17.29;54.20;99353.53;4992324;28;20227;-65
2022/01/03 11:31:41;;;;;;;37.27;25.73;;;;;;;17.02;54.91;99347.94;4992293;28;20186;-65
2022/01/03 11:34:10;;;;;;;38.37;26.17;;;;;;;16.72;55.55;99338.50;4993950;28;20191;-64
2022/01/03 11:36:39;;;;;;;40.63;27.23;;;;;;;16.52;55.92;99330.06;4992391;28;20201;-65
2022/01/03 11:39:08;;;;;;;41.13;25.57;;;;;;;16.43;56.83;99318.09;4992514;28;20222;-66
2022/01/03 11:41:36;;;;;;;39.23;24.70;;;;;;;16.40;56.15;99310.47;4977391;28;20195;-66
2022/01/03 11:44:04;;;;;;;39.60;24.37;;;;;;;16.34;57.06;99306.91;4973983;28;20201;-67
2022/01/03 11:46:31;;;;;;;34.37;24.07;;;;;;;16.37;57.53;99300.25;4973761;28;20212;-66